createdAt,value
2023-04-17T00:01:09.312Z,14.55
2023-04-17T00:03:36.060Z,14.63
2023-04-17T00:06:03.498Z,14.56
2023-04-17T00:08:30.067Z,14.45
2023-04-17T00:11:06.512Z,14.50
2023-04-17T00:13:34.129Z,14.67
2023-04-17T00:16:00.796Z,14.59
2023-04-17T00:18:27.372Z,14.71
2023-04-17T00:20:54.494Z,14.71
2023-04-17T00:23:21.229Z,14.27
2023-04-17T00:25:47.775Z,14.53
2023-04-17T00:28:14.317Z,14.53
2023-04-17T00:30:40.826Z,14.58
2023-04-17T00:33:07.397Z,14.71
2023-04-17T00:35:34.355Z,14.78
2023-04-17T00:38:01.013Z,14.42
2023-04-17T00:40:27.647Z,14.62
2023-04-17T00:43:00.046Z,14.45
2023-04-17T00:45:26.605Z,14.66
2023-04-17T00:47:53.498Z,14.65
2023-04-17T00:50:20.115Z,14.42
2023-04-17T00:52:46.704Z,14.27
2023-04-17T00:55:14.286Z,14.44
2023-04-17T00:57:42.585Z,14.32
2023-04-17T01:00:10.328Z,14.64
2023-04-17T01:02:37.794Z,14.38
2023-04-17T01:05:04.923Z,14.43
2023-04-17T01:07:31.580Z,14.47
2023-04-17T01:09:59.152Z,14.47
2023-04-17T01:12:25.900Z,14.55
2023-04-17T01:14:53.771Z,14.37
2023-04-17T01:17:21.590Z,14.47
2023-04-17T01:19:49.328Z,14.64
2023-04-17T01:22:21.861Z,14.59
2023-04-17T01:24:49.104Z,14.66
2023-04-17T01:27:15.575Z,14.71
2023-04-17T01:29:43.272Z,14.55
2023-04-17T01:32:09.961Z,14.66
2023-04-17T01:34:37.538Z,14.87
2023-04-17T01:37:04.485Z,14.77
2023-04-17T01:39:31.336Z,14.83
2023-04-17T01:41:58.252Z,14.78
2023-04-17T01:44:25.082Z,14.90
2023-04-17T01:46:51.814Z,14.93
2023-04-17T01:49:18.360Z,14.53
2023-04-17T01:51:44.866Z,14.36
2023-04-17T01:54:11.372Z,14.71
2023-04-17T01:56:37.995Z,14.41
2023-04-17T01:59:04.484Z,14.06
2023-04-17T02:01:31.183Z,14.06
2023-04-17T02:03:57.897Z,14.34
2023-04-17T02:06:24.896Z,14.22
2023-04-17T02:08:51.407Z,14.55
2023-04-17T02:11:18.394Z,14.59
2023-04-17T02:13:44.934Z,14.69
2023-04-17T02:16:12.503Z,14.70
2023-04-17T02:18:40.745Z,14.72
2023-04-17T02:21:07.279Z,14.67
2023-04-17T02:23:34.001Z,14.75
2023-04-17T02:26:00.849Z,14.69
2023-04-17T02:28:27.483Z,14.81
2023-04-17T02:30:54.050Z,14.84
2023-04-17T02:33:21.418Z,14.80
2023-04-17T02:35:48.040Z,14.78
2023-04-17T02:38:14.591Z,14.71
2023-04-17T02:40:41.350Z,14.65
2023-04-17T02:43:07.887Z,14.79
2023-04-17T02:45:34.439Z,14.78
2023-04-17T02:48:02.149Z,14.82
2023-04-17T02:50:28.748Z,14.76
2023-04-17T02:52:55.288Z,14.75
2023-04-17T02:55:22.325Z,14.75
2023-04-17T02:57:48.953Z,14.74
2023-04-17T03:00:15.864Z,14.71
2023-04-17T03:02:42.714Z,14.89
2023-04-17T03:05:11.559Z,14.90
2023-04-17T03:07:38.204Z,14.93
2023-04-17T03:10:06.270Z,14.75
2023-04-17T03:12:32.753Z,14.66
2023-04-17T03:14:59.242Z,14.50
2023-04-17T03:17:25.771Z,14.71
2023-04-17T03:19:52.283Z,14.74
2023-04-17T03:22:18.894Z,14.85
2023-04-17T03:24:45.529Z,14.76
2023-04-17T03:27:12.006Z,14.71
2023-04-17T03:29:38.619Z,14.82
2023-04-17T03:32:05.483Z,14.52
2023-04-17T03:34:32.470Z,14.77
2023-04-17T03:36:59.239Z,14.70
2023-04-17T03:39:25.940Z,14.84
2023-04-17T03:41:52.558Z,14.82
2023-04-17T03:44:19.176Z,14.74
2023-04-17T03:46:45.798Z,14.72
2023-04-17T03:49:12.657Z,14.61
2023-04-17T03:51:39.404Z,14.54
2023-04-17T03:54:05.993Z,14.73
2023-04-17T03:56:32.492Z,14.43
2023-04-17T03:58:59.195Z,14.59
2023-04-17T04:01:28.196Z,14.68
2023-04-17T04:03:55.392Z,14.76
2023-04-17T04:06:22.423Z,14.57
2023-04-17T04:08:49.469Z,14.60
2023-04-17T04:11:16.426Z,14.75
2023-04-17T04:13:42.898Z,14.54
2023-04-17T04:16:09.517Z,14.43
2023-04-17T04:18:36.661Z,14.62
2023-04-17T04:21:03.300Z,14.51
2023-04-17T04:23:30.624Z,14.50
2023-04-17T04:25:57.955Z,14.52
2023-04-17T04:28:24.537Z,14.36
2023-04-17T04:30:53.028Z,14.37
2023-04-17T04:33:20.594Z,14.58
2023-04-17T04:35:48.548Z,14.62
2023-04-17T04:38:15.442Z,14.30
2023-04-17T04:40:44.006Z,14.44
2023-04-17T04:43:10.765Z,14.34
2023-04-17T04:45:37.348Z,14.27
2023-04-17T04:48:03.878Z,14.12
2023-04-17T04:50:30.985Z,14.14
2023-04-17T04:52:57.483Z,14.43
2023-04-17T04:55:24.521Z,14.45
2023-04-17T04:57:54.186Z,14.56
2023-04-17T05:00:20.902Z,14.29
2023-04-17T05:02:47.657Z,14.31
2023-04-17T05:05:14.242Z,14.36
2023-04-17T05:07:40.924Z,14.41
2023-04-17T05:10:08.045Z,14.54
2023-04-17T05:12:35.211Z,14.22
2023-04-17T05:15:02.128Z,14.50
2023-04-17T05:17:28.631Z,14.61
2023-04-17T05:19:55.591Z,14.63
2023-04-17T05:22:22.216Z,14.62
2023-04-17T05:24:49.077Z,14.37
2023-04-17T05:27:16.593Z,14.58
2023-04-17T05:29:43.316Z,14.71
2023-04-17T05:32:09.935Z,14.74
2023-04-17T05:34:36.947Z,14.69
2023-04-17T05:37:03.609Z,14.61
2023-04-17T05:39:30.297Z,14.56
2023-04-17T05:41:57.114Z,14.51
2023-04-17T05:44:23.652Z,14.36
2023-04-17T05:46:50.352Z,14.67
2023-04-17T05:49:17.027Z,14.65
2023-04-17T05:51:43.604Z,14.54
2023-04-17T05:54:10.188Z,14.75
2023-04-17T05:56:36.681Z,14.59
2023-04-17T05:59:03.199Z,14.39
2023-04-17T06:01:29.715Z,14.62
2023-04-17T06:03:57.165Z,14.50
2023-04-17T06:06:24.003Z,14.79
2023-04-17T06:08:52.400Z,14.44
2023-04-17T06:11:18.975Z,14.51
2023-04-17T06:13:45.557Z,14.62
2023-04-17T06:16:12.681Z,15.06
2023-04-17T06:18:40.089Z,14.76
2023-04-17T06:21:07.462Z,14.75
2023-04-17T06:23:33.941Z,14.58
2023-04-17T06:26:00.447Z,14.71
2023-04-17T06:28:26.947Z,15.04
2023-04-17T06:30:53.422Z,14.93
2023-04-17T06:33:20.298Z,14.77
2023-04-17T06:35:46.869Z,14.71
2023-04-17T06:38:13.688Z,15.11
2023-04-17T06:40:40.205Z,15.19
2023-04-17T06:43:06.771Z,15.06
2023-04-17T06:45:34.240Z,14.71
2023-04-17T06:48:00.766Z,15.37
2023-04-17T06:50:28.552Z,15.00
2023-04-17T06:52:55.052Z,15.09
2023-04-17T06:55:21.839Z,15.04
2023-04-17T06:57:48.548Z,15.49
2023-04-17T07:00:15.509Z,15.61
2023-04-17T07:02:42.457Z,15.31
2023-04-17T07:05:09.399Z,15.58
2023-04-17T07:07:36.482Z,15.88
2023-04-17T07:10:04.118Z,15.83
2023-04-17T07:12:30.803Z,15.87
2023-04-17T07:14:57.345Z,16.25
2023-04-17T07:17:23.966Z,16.75
2023-04-17T07:19:50.797Z,16.28
2023-04-17T07:22:17.446Z,16.49
2023-04-17T07:24:43.999Z,16.92
2023-04-17T07:27:11.038Z,17.37
2023-04-17T07:29:37.915Z,17.54
2023-04-17T07:32:04.926Z,17.70
2023-04-17T07:34:32.775Z,18.45
2023-04-17T07:36:59.271Z,18.08
2023-04-17T07:39:30.452Z,18.19
2023-04-17T07:41:57.317Z,17.80
2023-04-17T07:44:23.805Z,17.72
2023-04-17T07:46:50.567Z,18.03
2023-04-17T07:49:17.328Z,18.07
2023-04-17T07:51:44.508Z,18.11
2023-04-17T07:54:11.231Z,18.59
2023-04-17T07:56:37.843Z,18.60
2023-04-17T07:59:04.805Z,19.13
2023-04-17T08:01:32.057Z,19.18
2023-04-17T08:03:59.090Z,19.43
2023-04-17T08:06:26.624Z,19.78
2023-04-17T08:08:53.190Z,19.46
2023-04-17T08:11:21.267Z,19.97
2023-04-17T08:13:48.050Z,19.33
2023-04-17T08:16:14.722Z,19.71
2023-04-17T08:18:42.122Z,19.12
2023-04-17T08:21:09.117Z,19.08
2023-04-17T08:23:36.010Z,19.16
2023-04-17T08:26:02.587Z,20.00
2023-04-17T08:28:29.198Z,18.56
2023-04-17T08:30:55.937Z,19.89
2023-04-17T08:33:23.105Z,20.31
2023-04-17T08:35:49.744Z,20.33
2023-04-17T08:38:16.675Z,20.74
2023-04-17T08:40:46.789Z,20.92
2023-04-17T08:43:19.501Z,21.21
2023-04-17T08:45:55.649Z,21.71
2023-04-17T08:48:23.703Z,21.73
2023-04-17T08:50:52.378Z,22.36
2023-04-17T08:53:20.563Z,22.21
2023-04-17T08:55:48.139Z,21.90
2023-04-17T08:58:15.538Z,22.98
2023-04-17T09:00:43.992Z,23.55
2023-04-17T09:03:13.733Z,23.72
2023-04-17T09:05:43.353Z,23.39
2023-04-17T09:08:12.483Z,24.25
2023-04-17T09:10:40.976Z,24.57
2023-04-17T09:13:08.695Z,23.35
2023-04-17T09:15:36.781Z,22.60
2023-04-17T09:18:04.024Z,23.68
2023-04-17T09:20:30.599Z,23.26
2023-04-17T09:23:02.508Z,22.98
2023-04-17T09:25:29.561Z,23.96
2023-04-17T09:28:13.835Z,23.12
2023-04-17T09:30:41.604Z,22.94
2023-04-17T09:33:10.441Z,22.94
2023-04-17T09:35:40.111Z,22.72
2023-04-17T09:38:07.269Z,22.20
2023-04-17T09:40:41.570Z,21.94
2023-04-17T09:43:10.295Z,22.07
2023-04-17T09:45:41.525Z,22.30
2023-04-17T09:48:12.791Z,22.82
2023-04-17T09:50:39.896Z,21.72
2023-04-17T09:53:07.460Z,23.30
2023-04-17T09:55:35.815Z,22.66
2023-04-17T09:58:04.292Z,21.02
2023-04-17T10:00:31.186Z,22.54
2023-04-17T10:02:59.109Z,22.69
2023-04-17T10:05:28.776Z,23.72
2023-04-17T10:07:56.321Z,23.34
2023-04-17T10:10:23.996Z,23.47
2023-04-17T10:12:53.459Z,24.24
2023-04-17T10:15:21.077Z,25.25
2023-04-17T10:17:49.832Z,24.59
2023-04-17T10:20:22.766Z,24.93
2023-04-17T10:22:54.422Z,24.07
2023-04-17T10:25:25.846Z,24.08
2023-04-17T10:27:58.192Z,23.28
2023-04-17T10:30:36.405Z,24.16
2023-04-17T10:33:15.739Z,24.88
2023-04-17T10:35:42.432Z,23.15
2023-04-17T10:38:09.035Z,22.77
2023-04-17T10:40:36.583Z,23.00
2023-04-17T10:43:20.429Z,23.45
2023-04-17T10:46:09.163Z,24.36
2023-04-17T10:48:41.707Z,25.17
2023-04-17T10:51:23.724Z,26.14
2023-04-17T10:54:00.894Z,25.91
2023-04-17T10:56:38.553Z,27.49
2023-04-17T10:59:07.752Z,30.58
2023-04-17T11:01:37.542Z,28.58
2023-04-17T11:04:05.067Z,32.05
2023-04-17T11:06:33.101Z,30.42
2023-04-17T11:09:00.442Z,30.01
2023-04-17T11:11:42.947Z,29.49
2023-04-17T11:14:14.472Z,25.69
2023-04-17T11:16:43.015Z,28.02
2023-04-17T11:19:18.529Z,28.88
2023-04-17T11:21:45.853Z,31.28
2023-04-17T11:24:12.368Z,28.82
2023-04-17T11:26:46.668Z,28.03
2023-04-17T11:29:17.754Z,29.54
2023-04-17T11:31:45.917Z,28.62
2023-04-17T11:34:16.940Z,32.37
2023-04-17T11:36:50.435Z,32.93
2023-04-17T11:39:17.829Z,35.01
2023-04-17T11:41:44.898Z,33.41
2023-04-17T11:44:15.806Z,31.42
2023-04-17T11:46:42.530Z,32.51
2023-04-17T11:49:09.937Z,32.22
2023-04-17T11:51:36.629Z,31.25
2023-04-17T11:54:03.158Z,31.32
2023-04-17T11:56:30.079Z,34.02
2023-04-17T11:58:58.382Z,31.49
2023-04-17T12:01:27.177Z,29.44
2023-04-17T12:03:57.778Z,31.16
2023-04-17T12:06:35.896Z,28.13
2023-04-17T12:09:02.955Z,26.59
2023-04-17T12:11:31.217Z,28.14
2023-04-17T12:13:57.751Z,28.65
2023-04-17T12:16:25.712Z,26.46
2023-04-17T12:18:52.977Z,25.74
2023-04-17T12:21:23.888Z,25.46
2023-04-17T12:23:51.117Z,23.79
2023-04-17T12:26:17.637Z,23.66
2023-04-17T12:28:44.880Z,23.89
2023-04-17T12:31:11.591Z,24.97
2023-04-17T12:33:38.151Z,23.93
2023-04-17T12:36:05.405Z,24.09
2023-04-17T12:38:32.125Z,23.58
2023-04-17T12:40:58.720Z,24.17
2023-04-17T12:43:25.372Z,24.36
2023-04-17T12:45:54.900Z,23.99
2023-04-17T12:48:21.556Z,23.98
2023-04-17T12:50:48.038Z,22.88
2023-04-17T12:53:15.290Z,22.82
2023-04-17T12:55:43.606Z,22.51
2023-04-17T12:58:12.410Z,22.26
2023-04-17T13:00:40.689Z,22.38
2023-04-17T13:03:07.507Z,22.56
2023-04-17T13:05:34.362Z,20.87
2023-04-17T13:08:09.671Z,19.98
2023-04-17T13:10:36.271Z,20.11
2023-04-17T13:13:04.614Z,19.33
2023-04-17T13:15:31.869Z,20.52
2023-04-17T13:17:58.427Z,21.48
2023-04-17T13:20:24.974Z,21.26
2023-04-17T13:22:51.421Z,21.64
2023-04-17T13:25:18.122Z,20.37
2023-04-17T13:27:44.764Z,20.30
2023-04-17T13:30:11.727Z,20.30
2023-04-17T13:32:40.277Z,20.61
2023-04-17T13:35:09.596Z,19.89
2023-04-17T13:37:36.155Z,19.23
2023-04-17T13:40:05.607Z,19.55
2023-04-17T13:42:32.360Z,20.63
2023-04-17T13:44:58.845Z,20.90
2023-04-17T13:47:25.393Z,20.78
2023-04-17T13:49:51.902Z,21.26
2023-04-17T13:52:18.443Z,21.49
2023-04-17T13:54:45.149Z,21.48
2023-04-17T13:57:14.457Z,21.72
2023-04-17T13:59:40.931Z,21.98
2023-04-17T14:02:07.717Z,21.36
2023-04-17T14:04:34.374Z,21.80
2023-04-17T14:07:01.172Z,21.35
2023-04-17T14:09:27.738Z,20.88
2023-04-17T14:11:54.225Z,21.22
2023-04-17T14:14:20.971Z,21.40
2023-04-17T14:16:49.599Z,22.26
2023-04-17T14:19:17.238Z,22.26
2023-04-17T14:21:44.041Z,22.87
2023-04-17T14:24:10.561Z,22.30
2023-04-17T14:26:38.184Z,21.23
2023-04-17T14:29:04.734Z,21.86
2023-04-17T14:31:31.823Z,21.42
2023-04-17T14:33:58.384Z,22.24
2023-04-17T14:36:24.984Z,21.74
2023-04-17T14:38:53.557Z,20.71
2023-04-17T14:41:20.408Z,20.59
2023-04-17T14:43:47.083Z,20.19
2023-04-17T14:46:13.623Z,19.81
2023-04-17T14:48:54.221Z,20.80
2023-04-17T14:51:27.097Z,21.49
2023-04-17T14:53:54.066Z,22.22
2023-04-17T14:56:21.637Z,21.68
2023-04-17T14:58:48.649Z,21.33
2023-04-17T15:01:15.307Z,20.71
2023-04-17T15:03:44.423Z,20.24
2023-04-17T15:06:12.936Z,20.10
2023-04-17T15:08:40.348Z,20.22
2023-04-17T15:11:07.051Z,20.46
2023-04-17T15:13:34.422Z,20.83
2023-04-17T15:16:01.149Z,20.25
2023-04-17T15:18:27.672Z,20.34
2023-04-17T15:20:54.554Z,20.96
2023-04-17T15:23:22.116Z,21.08
2023-04-17T15:25:48.861Z,20.85
2023-04-17T15:28:15.897Z,21.41
2023-04-17T15:30:42.655Z,20.30
2023-04-17T15:33:10.406Z,19.95
2023-04-17T15:35:37.399Z,19.64
2023-04-17T15:38:06.069Z,20.00
2023-04-17T15:40:32.844Z,19.91
2023-04-17T15:42:59.910Z,18.86
2023-04-17T15:45:26.944Z,19.57
2023-04-17T15:47:53.634Z,20.05
2023-04-17T15:50:21.299Z,20.14
2023-04-17T15:52:48.152Z,19.95
2023-04-17T15:55:15.270Z,19.70
2023-04-17T15:57:43.087Z,20.38
2023-04-17T16:00:10.662Z,20.56
2023-04-17T16:02:37.402Z,20.93
2023-04-17T16:05:04.423Z,21.15
2023-04-17T16:07:31.662Z,21.00
2023-04-17T16:09:58.493Z,20.47
2023-04-17T16:12:24.997Z,20.19
2023-04-17T16:14:51.507Z,20.17
2023-04-17T16:17:18.253Z,19.95
2023-04-17T16:19:44.759Z,20.56
2023-04-17T16:22:11.268Z,20.36
2023-04-17T16:24:37.755Z,20.38
2023-04-17T16:27:06.222Z,20.06
2023-04-17T16:29:32.754Z,19.28
2023-04-17T16:31:59.565Z,19.56
2023-04-17T16:34:26.244Z,19.84
2023-04-17T16:36:52.716Z,19.16
2023-04-17T16:39:19.197Z,19.53
2023-04-17T16:41:45.683Z,19.19
2023-04-17T16:44:12.716Z,19.36
2023-04-17T16:47:05.121Z,19.11
2023-04-17T16:49:25.753Z,18.87
2023-04-17T16:51:52.910Z,18.81
2023-04-17T16:54:21.500Z,18.88
2023-04-17T16:56:48.848Z,18.37
2023-04-17T16:59:15.809Z,18.35
2023-04-17T17:01:42.883Z,18.52
2023-04-17T17:04:09.461Z,18.54
2023-04-17T17:06:36.085Z,18.41
2023-04-17T17:09:02.982Z,17.94
2023-04-17T17:11:29.635Z,18.36
2023-04-17T17:13:57.351Z,18.64
2023-04-17T17:16:23.865Z,18.34
2023-04-17T17:18:50.382Z,18.54
2023-04-17T17:21:16.907Z,18.57
2023-04-17T17:23:43.476Z,18.40
2023-04-17T17:26:10.019Z,18.29
2023-04-17T17:28:36.849Z,18.76
2023-04-17T17:31:05.347Z,18.60
2023-04-17T17:33:32.151Z,18.95
2023-04-17T17:35:59.528Z,18.86
2023-04-17T17:38:30.818Z,18.67
2023-04-17T17:40:57.366Z,18.75
2023-04-17T17:43:24.633Z,18.50
2023-04-17T17:45:52.828Z,18.87
2023-04-17T17:48:20.498Z,18.65
2023-04-17T17:50:47.409Z,18.84
2023-04-17T17:53:14.056Z,18.99
2023-04-17T17:55:41.992Z,18.84
2023-04-17T17:58:09.125Z,18.76
2023-04-17T18:00:37.359Z,18.47
2023-04-17T18:03:04.795Z,18.14
2023-04-17T18:05:31.453Z,18.17
2023-04-17T18:07:58.222Z,17.84
2023-04-17T18:10:24.674Z,17.62
2023-04-17T18:12:51.118Z,17.83
2023-04-17T18:15:17.835Z,17.62
2023-04-17T18:17:44.395Z,17.37
2023-04-17T18:20:11.287Z,17.90
2023-04-17T18:22:38.391Z,17.53
2023-04-17T18:25:06.864Z,17.56
2023-04-17T18:27:36.261Z,17.52
2023-04-17T18:30:07.691Z,17.20
2023-04-17T18:32:34.960Z,17.48
2023-04-17T18:35:01.994Z,17.54
2023-04-17T18:37:28.795Z,17.35
2023-04-17T18:39:55.482Z,17.61
2023-04-17T18:42:22.454Z,17.41
2023-04-17T18:44:49.730Z,17.31
2023-04-17T18:47:16.293Z,17.48
2023-04-17T18:49:42.895Z,17.64
2023-04-17T18:52:09.437Z,17.64
2023-04-17T18:54:35.913Z,17.70
2023-04-17T18:57:02.441Z,17.51
2023-04-17T18:59:29.260Z,17.55
2023-04-17T19:01:55.748Z,17.55
2023-04-17T19:04:22.308Z,17.29
2023-04-17T19:06:48.791Z,17.49
2023-04-17T19:09:15.453Z,17.39
2023-04-17T19:11:42.362Z,17.38
2023-04-17T19:14:08.858Z,17.25
2023-04-17T19:16:35.839Z,16.55
2023-04-17T19:19:02.355Z,17.13
2023-04-17T19:21:31.112Z,17.13
2023-04-17T19:23:57.564Z,16.91
2023-04-17T19:26:24.284Z,17.13
2023-04-17T19:28:50.816Z,16.69
2023-04-17T19:31:17.343Z,16.79
2023-04-17T19:33:43.824Z,16.62
2023-04-17T19:36:10.331Z,16.59
2023-04-17T19:38:36.811Z,16.43
2023-04-17T19:41:15.118Z,16.18
2023-04-17T19:43:42.499Z,16.42
2023-04-17T19:46:09.324Z,16.06
2023-04-17T19:48:36.389Z,15.98
2023-04-17T19:51:05.436Z,16.20
2023-04-17T19:53:33.957Z,15.85
2023-04-17T19:56:00.786Z,15.84
2023-04-17T19:58:27.308Z,16.05
2023-04-17T20:00:54.167Z,15.88
2023-04-17T20:03:21.057Z,15.80
2023-04-17T20:05:48.740Z,15.74
2023-04-17T20:08:15.568Z,15.73
2023-04-17T20:10:42.089Z,15.48
2023-04-17T20:13:10.962Z,15.44
2023-04-17T20:15:38.016Z,15.69
2023-04-17T20:18:10.163Z,15.23
2023-04-17T20:20:37.423Z,15.51
2023-04-17T20:23:04.218Z,15.34
2023-04-17T20:25:30.951Z,15.02
2023-04-17T20:27:57.616Z,15.15
2023-04-17T20:30:24.437Z,15.35
2023-04-17T20:32:51.286Z,15.22
2023-04-17T20:35:23.713Z,15.19
2023-04-17T20:37:51.645Z,15.02
2023-04-17T20:40:19.122Z,15.26
2023-04-17T20:42:46.633Z,14.93
2023-04-17T20:45:13.439Z,15.11
2023-04-17T20:47:52.843Z,15.14
2023-04-17T20:50:22.964Z,15.01
2023-04-17T20:52:49.599Z,14.85
2023-04-17T20:55:18.228Z,14.97
2023-04-17T20:57:45.046Z,14.94
2023-04-17T21:00:12.210Z,15.02
2023-04-17T21:02:39.220Z,15.06
2023-04-17T21:05:06.669Z,15.03
2023-04-17T21:07:33.160Z,14.89
2023-04-17T21:09:59.780Z,14.76
2023-04-17T21:12:26.332Z,14.68
2023-04-17T21:14:52.906Z,14.52
2023-04-17T21:17:19.579Z,14.69
2023-04-17T21:19:46.165Z,14.97
2023-04-17T21:22:13.057Z,14.49
2023-04-17T21:24:39.717Z,14.65
2023-04-17T21:27:06.194Z,14.18
2023-04-17T21:29:32.760Z,14.19
2023-04-17T21:31:59.700Z,14.31
2023-04-17T21:34:26.424Z,14.04
2023-04-17T21:36:54.020Z,14.07
2023-04-17T21:39:21.206Z,13.61
2023-04-17T21:41:47.800Z,13.92
2023-04-17T21:44:14.962Z,13.95
2023-04-17T21:46:44.312Z,14.02
2023-04-17T21:49:10.885Z,14.21
2023-04-17T21:51:37.322Z,14.37
2023-04-17T21:54:04.265Z,14.27
2023-04-17T21:56:31.564Z,14.36
2023-04-17T21:58:58.200Z,14.37
2023-04-17T22:01:24.875Z,14.17
2023-04-17T22:03:51.438Z,14.14
2023-04-17T22:06:17.990Z,14.14
2023-04-17T22:08:44.618Z,14.19
2023-04-17T22:11:11.136Z,14.09
2023-04-17T22:13:37.608Z,13.87
2023-04-17T22:16:04.545Z,13.88
2023-04-17T22:18:31.088Z,13.64
2023-04-17T22:20:57.593Z,13.35
2023-04-17T22:23:24.111Z,13.56
2023-04-17T22:25:50.690Z,13.81
2023-04-17T22:28:17.175Z,13.80
2023-04-17T22:30:43.704Z,13.85
2023-04-17T22:33:10.189Z,13.80
2023-04-17T22:35:36.776Z,13.63
2023-04-17T22:38:03.274Z,13.50
2023-04-17T22:40:30.211Z,13.57
2023-04-17T22:42:56.754Z,13.18
2023-04-17T22:45:23.280Z,13.40
2023-04-17T22:47:49.853Z,13.38
2023-04-17T22:50:17.397Z,13.76
2023-04-17T22:52:43.889Z,13.48
2023-04-17T22:55:10.975Z,13.24
2023-04-17T22:57:37.989Z,13.46
2023-04-17T23:00:06.316Z,12.73
2023-04-17T23:02:32.893Z,12.94
2023-04-17T23:04:59.434Z,12.88
2023-04-17T23:07:26.185Z,12.56
2023-04-17T23:09:52.737Z,12.90
2023-04-17T23:12:20.008Z,12.59
2023-04-17T23:14:48.366Z,12.38
2023-04-17T23:17:14.894Z,12.40
2023-04-17T23:19:41.602Z,12.17
2023-04-17T23:22:09.202Z,12.01
2023-04-17T23:24:36.072Z,11.66
2023-04-17T23:27:02.602Z,11.59
2023-04-17T23:29:29.179Z,11.54
2023-04-17T23:31:55.747Z,11.63
2023-04-17T23:34:22.450Z,11.80
2023-04-17T23:36:48.993Z,11.56
2023-04-17T23:39:15.760Z,11.40
2023-04-17T23:41:42.770Z,11.41
2023-04-17T23:44:09.822Z,11.66
2023-04-17T23:46:36.630Z,11.49
2023-04-17T23:49:03.782Z,11.79
2023-04-17T23:51:31.517Z,11.52
2023-04-17T23:53:59.817Z,11.63
2023-04-17T23:56:29.445Z,11.60
2023-04-17T23:58:56.648Z,11.46
